sensor_id;sensor_type;location;lat;lon;timestamp;temperature;humidity
22035;DHT22;11181;51.002;4.356;2023-03-11T00:01:18;4.70;99.90
22035;DHT22;11181;51.002;4.356;2023-03-11T00:03:45;4.70;99.90
22035;DHT22;11181;51.002;4.356;2023-03-11T00:06:11;4.60;99.90
22035;DHT22;11181;51.002;4.356;2023-03-11T00:08:38;4.60;99.90
22035;DHT22;11181;51.002;4.356;2023-03-11T00:11:05;4.50;99.90
22035;DHT22;11181;51.002;4.356;2023-03-11T00:13:32;4.50;99.90
22035;DHT22;11181;51.002;4.356;2023-03-11T00:16:02;4.40;99.90
22035;DHT22;11181;51.002;4.356;2023-03-11T00:18:30;4.30;99.90
22035;DHT22;11181;51.002;4.356;2023-03-11T00:20:58;4.30;99.90
22035;DHT22;11181;51.002;4.356;2023-03-11T00:23:26;4.20;99.90
22035;DHT22;11181;51.002;4.356;2023-03-11T00:25:53;4.10;99.90
22035;DHT22;11181;51.002;4.356;2023-03-11T00:28:20;4.10;99.90
22035;DHT22;11181;51.002;4.356;2023-03-11T00:30:50;4.00;99.90
22035;DHT22;11181;51.002;4.356;2023-03-11T00:33:17;4.00;99.90
22035;DHT22;11181;51.002;4.356;2023-03-11T00:35:45;4.10;99.90
22035;DHT22;11181;51.002;4.356;2023-03-11T00:38:13;4.10;99.90
22035;DHT22;11181;51.002;4.356;2023-03-11T00:40:41;4.10;99.90
22035;DHT22;11181;51.002;4.356;2023-03-11T00:43:08;4.10;99.90
22035;DHT22;11181;51.002;4.356;2023-03-11T00:45:35;4.10;99.90
22035;DHT22;11181;51.002;4.356;2023-03-11T00:48:03;4.00;99.90
22035;DHT22;11181;51.002;4.356;2023-03-11T00:50:32;4.10;99.90
22035;DHT22;11181;51.002;4.356;2023-03-11T00:53:01;4.10;99.90
22035;DHT22;11181;51.002;4.356;2023-03-11T00:55:30;4.10;99.90
22035;DHT22;11181;51.002;4.356;2023-03-11T00:57:59;4.00;99.90
22035;DHT22;11181;51.002;4.356;2023-03-11T01:00:28;4.00;99.90
22035;DHT22;11181;51.002;4.356;2023-03-11T01:02:56;4.00;99.90
22035;DHT22;11181;51.002;4.356;2023-03-11T01:05:26;3.90;99.90
22035;DHT22;11181;51.002;4.356;2023-03-11T01:07:53;3.80;99.90
22035;DHT22;11181;51.002;4.356;2023-03-11T01:10:22;3.80;99.90
22035;DHT22;11181;51.002;4.356;2023-03-11T01:12:49;3.80;99.90
22035;DHT22;11181;51.002;4.356;2023-03-11T01:15:19;3.80;99.90
22035;DHT22;11181;51.002;4.356;2023-03-11T01:17:46;3.90;99.90
22035;DHT22;11181;51.002;4.356;2023-03-11T01:20:13;4.00;99.90
22035;DHT22;11181;51.002;4.356;2023-03-11T01:22:40;4.00;99.90
22035;DHT22;11181;51.002;4.356;2023-03-11T01:25:10;4.10;99.90
22035;DHT22;11181;51.002;4.356;2023-03-11T01:27:39;4.10;99.90
22035;DHT22;11181;51.002;4.356;2023-03-11T01:30:07;4.10;99.90
22035;DHT22;11181;51.002;4.356;2023-03-11T01:32:35;4.20;99.90
22035;DHT22;11181;51.002;4.356;2023-03-11T01:35:01;4.30;99.90
22035;DHT22;11181;51.002;4.356;2023-03-11T01:37:28;4.40;99.90
22035;DHT22;11181;51.002;4.356;2023-03-11T01:39:55;4.40;99.90
22035;DHT22;11181;51.002;4.356;2023-03-11T01:42:22;4.40;99.90
22035;DHT22;11181;51.002;4.356;2023-03-11T01:44:51;4.40;99.90
22035;DHT22;11181;51.002;4.356;2023-03-11T01:47:39;4.40;99.90
22035;DHT22;11181;51.002;4.356;2023-03-11T01:50:10;4.50;99.90
22035;DHT22;11181;51.002;4.356;2023-03-11T01:52:39;4.50;99.90
22035;DHT22;11181;51.002;4.356;2023-03-11T01:55:07;4.50;99.90
22035;DHT22;11181;51.002;4.356;2023-03-11T01:57:35;4.40;99.90
22035;DHT22;11181;51.002;4.356;2023-03-11T02:00:07;4.30;99.90
22035;DHT22;11181;51.002;4.356;2023-03-11T02:02:38;4.30;99.90
22035;DHT22;11181;51.002;4.356;2023-03-11T02:05:06;4.30;99.90
22035;DHT22;11181;51.002;4.356;2023-03-11T02:07:33;4.20;99.90
22035;DHT22;11181;51.002;4.356;2023-03-11T02:10:00;4.10;99.90
22035;DHT22;11181;51.002;4.356;2023-03-11T02:12:30;4.20;99.90
22035;DHT22;11181;51.002;4.356;2023-03-11T02:14:59;4.20;99.90
22035;DHT22;11181;51.002;4.356;2023-03-11T02:17:29;4.10;99.90
22035;DHT22;11181;51.002;4.356;2023-03-11T02:20:06;4.10;99.90
22035;DHT22;11181;51.002;4.356;2023-03-11T02:22:35;4.20;99.90
22035;DHT22;11181;51.002;4.356;2023-03-11T02:25:06;4.20;99.90
22035;DHT22;11181;51.002;4.356;2023-03-11T02:27:39;4.30;99.90
22035;DHT22;11181;51.002;4.356;2023-03-11T02:30:08;4.30;99.90
22035;DHT22;11181;51.002;4.356;2023-03-11T02:32:36;4.40;99.90
22035;DHT22;11181;51.002;4.356;2023-03-11T02:35:04;4.50;99.90
22035;DHT22;11181;51.002;4.356;2023-03-11T02:37:31;4.50;99.90
22035;DHT22;11181;51.002;4.356;2023-03-11T02:40:32;4.60;99.90
22035;DHT22;11181;51.002;4.356;2023-03-11T02:43:05;4.60;99.90
22035;DHT22;11181;51.002;4.356;2023-03-11T02:45:33;4.70;99.90
22035;DHT22;11181;51.002;4.356;2023-03-11T02:48:02;4.70;99.90
22035;DHT22;11181;51.002;4.356;2023-03-11T02:50:29;4.80;99.90
22035;DHT22;11181;51.002;4.356;2023-03-11T02:52:59;4.90;99.90
22035;DHT22;11181;51.002;4.356;2023-03-11T02:55:26;4.90;99.90
22035;DHT22;11181;51.002;4.356;2023-03-11T02:57:53;5.00;99.90
22035;DHT22;11181;51.002;4.356;2023-03-11T03:00:21;5.00;99.90
22035;DHT22;11181;51.002;4.356;2023-03-11T03:02:48;4.90;99.90
22035;DHT22;11181;51.002;4.356;2023-03-11T03:05:17;4.90;99.90
22035;DHT22;11181;51.002;4.356;2023-03-11T03:07:45;4.90;99.90
22035;DHT22;11181;51.002;4.356;2023-03-11T03:10:13;4.90;99.90
22035;DHT22;11181;51.002;4.356;2023-03-11T03:12:40;4.80;99.90
22035;DHT22;11181;51.002;4.356;2023-03-11T03:15:08;4.80;99.90
22035;DHT22;11181;51.002;4.356;2023-03-11T03:17:37;4.80;99.90
22035;DHT22;11181;51.002;4.356;2023-03-11T03:20:05;4.80;99.90
22035;DHT22;11181;51.002;4.356;2023-03-11T03:22:36;4.80;99.90
22035;DHT22;11181;51.002;4.356;2023-03-11T03:25:03;4.80;99.90
22035;DHT22;11181;51.002;4.356;2023-03-11T03:27:31;4.80;99.90
22035;DHT22;11181;51.002;4.356;2023-03-11T03:29:58;4.80;99.90
22035;DHT22;11181;51.002;4.356;2023-03-11T03:32:25;4.80;99.90
22035;DHT22;11181;51.002;4.356;2023-03-11T03:34:54;4.90;99.90
22035;DHT22;11181;51.002;4.356;2023-03-11T03:37:24;4.90;99.90
22035;DHT22;11181;51.002;4.356;2023-03-11T03:39:51;4.90;99.90
22035;DHT22;11181;51.002;4.356;2023-03-11T03:42:18;4.90;99.90
22035;DHT22;11181;51.002;4.356;2023-03-11T03:44:45;4.90;99.90
22035;DHT22;11181;51.002;4.356;2023-03-11T03:47:12;5.00;99.90
22035;DHT22;11181;51.002;4.356;2023-03-11T03:49:39;5.00;99.90
22035;DHT22;11181;51.002;4.356;2023-03-11T03:52:07;5.00;99.90
22035;DHT22;11181;51.002;4.356;2023-03-11T03:54:35;5.00;99.90
22035;DHT22;11181;51.002;4.356;2023-03-11T03:57:02;5.00;99.90
22035;DHT22;11181;51.002;4.356;2023-03-11T03:59:32;5.00;99.90
22035;DHT22;11181;51.002;4.356;2023-03-11T04:01:59;5.00;99.90
22035;DHT22;11181;51.002;4.356;2023-03-11T04:04:26;5.00;99.90
22035;DHT22;11181;51.002;4.356;2023-03-11T04:06:53;5.00;99.90
22035;DHT22;11181;51.002;4.356;2023-03-11T04:09:21;5.00;99.90
22035;DHT22;11181;51.002;4.356;2023-03-11T04:11:48;5.00;99.90
22035;DHT22;11181;51.002;4.356;2023-03-11T04:14:15;5.00;99.90
22035;DHT22;11181;51.002;4.356;2023-03-11T04:16:42;5.00;99.90
22035;DHT22;11181;51.002;4.356;2023-03-11T04:19:09;5.00;99.90
22035;DHT22;11181;51.002;4.356;2023-03-11T04:21:36;5.00;99.90
22035;DHT22;11181;51.002;4.356;2023-03-11T04:24:03;4.90;99.90
22035;DHT22;11181;51.002;4.356;2023-03-11T04:26:32;4.80;99.90
22035;DHT22;11181;51.002;4.356;2023-03-11T04:28:59;4.80;99.90
22035;DHT22;11181;51.002;4.356;2023-03-11T04:31:25;4.90;99.90
22035;DHT22;11181;51.002;4.356;2023-03-11T04:33:52;4.90;99.90
22035;DHT22;11181;51.002;4.356;2023-03-11T04:36:19;4.80;99.90
22035;DHT22;11181;51.002;4.356;2023-03-11T04:38:46;4.80;99.90
22035;DHT22;11181;51.002;4.356;2023-03-11T04:41:13;4.70;99.90
22035;DHT22;11181;51.002;4.356;2023-03-11T04:43:42;4.70;99.90
22035;DHT22;11181;51.002;4.356;2023-03-11T04:46:09;4.70;99.90
22035;DHT22;11181;51.002;4.356;2023-03-11T04:48:36;4.60;99.90
22035;DHT22;11181;51.002;4.356;2023-03-11T04:51:03;4.60;99.90
22035;DHT22;11181;51.002;4.356;2023-03-11T04:53:30;4.70;99.90
22035;DHT22;11181;51.002;4.356;2023-03-11T04:55:57;4.60;99.90
22035;DHT22;11181;51.002;4.356;2023-03-11T04:58:24;4.60;99.90
22035;DHT22;11181;51.002;4.356;2023-03-11T05:00:52;4.50;99.90
22035;DHT22;11181;51.002;4.356;2023-03-11T05:03:20;4.60;99.90
22035;DHT22;11181;51.002;4.356;2023-03-11T05:05:47;4.50;99.90
22035;DHT22;11181;51.002;4.356;2023-03-11T05:08:14;4.50;99.90
22035;DHT22;11181;51.002;4.356;2023-03-11T05:10:41;4.50;99.90
22035;DHT22;11181;51.002;4.356;2023-03-11T05:13:09;4.50;99.90
22035;DHT22;11181;51.002;4.356;2023-03-11T05:15:36;4.50;99.90
22035;DHT22;11181;51.002;4.356;2023-03-11T05:18:04;4.50;99.90
22035;DHT22;11181;51.002;4.356;2023-03-11T05:20:31;4.50;99.90
22035;DHT22;11181;51.002;4.356;2023-03-11T05:22:58;4.50;99.90
22035;DHT22;11181;51.002;4.356;2023-03-11T05:25:25;4.50;99.90
22035;DHT22;11181;51.002;4.356;2023-03-11T05:27:52;4.50;99.90
22035;DHT22;11181;51.002;4.356;2023-03-11T05:30:19;4.50;99.90
22035;DHT22;11181;51.002;4.356;2023-03-11T05:32:46;4.50;99.90
22035;DHT22;11181;51.002;4.356;2023-03-11T05:35:14;4.40;99.90
22035;DHT22;11181;51.002;4.356;2023-03-11T05:37:41;4.40;99.90
22035;DHT22;11181;51.002;4.356;2023-03-11T05:40:10;4.30;99.90
22035;DHT22;11181;51.002;4.356;2023-03-11T05:42:37;4.30;99.90
22035;DHT22;11181;51.002;4.356;2023-03-11T05:45:07;4.30;99.90
22035;DHT22;11181;51.002;4.356;2023-03-11T05:47:34;4.30;99.90
22035;DHT22;11181;51.002;4.356;2023-03-11T05:50:01;4.20;99.90
22035;DHT22;11181;51.002;4.356;2023-03-11T05:52:29;4.20;99.90
22035;DHT22;11181;51.002;4.356;2023-03-11T05:54:57;4.20;99.90
22035;DHT22;11181;51.002;4.356;2023-03-11T05:57:24;4.20;99.90
22035;DHT22;11181;51.002;4.356;2023-03-11T05:59:51;4.20;99.90
22035;DHT22;11181;51.002;4.356;2023-03-11T06:02:18;4.20;99.90
22035;DHT22;11181;51.002;4.356;2023-03-11T06:04:46;4.20;99.90
22035;DHT22;11181;51.002;4.356;2023-03-11T06:07:13;4.20;99.90
22035;DHT22;11181;51.002;4.356;2023-03-11T06:09:42;4.20;99.90
22035;DHT22;11181;51.002;4.356;2023-03-11T06:12:09;4.20;99.90
22035;DHT22;11181;51.002;4.356;2023-03-11T06:14:36;4.30;99.90
22035;DHT22;11181;51.002;4.356;2023-03-11T06:17:03;4.30;99.90
22035;DHT22;11181;51.002;4.356;2023-03-11T06:19:30;4.30;99.90
22035;DHT22;11181;51.002;4.356;2023-03-11T06:21:57;4.30;99.90
22035;DHT22;11181;51.002;4.356;2023-03-11T06:24:24;4.30;99.90
22035;DHT22;11181;51.002;4.356;2023-03-11T06:26:52;4.30;99.90
22035;DHT22;11181;51.002;4.356;2023-03-11T06:29:19;4.30;99.90
22035;DHT22;11181;51.002;4.356;2023-03-11T06:31:49;4.30;99.90
22035;DHT22;11181;51.002;4.356;2023-03-11T06:34:16;4.30;99.90
22035;DHT22;11181;51.002;4.356;2023-03-11T06:36:48;4.30;99.90
22035;DHT22;11181;51.002;4.356;2023-03-11T06:39:15;4.30;99.90
22035;DHT22;11181;51.002;4.356;2023-03-11T06:41:42;4.30;99.90
22035;DHT22;11181;51.002;4.356;2023-03-11T06:44:11;4.40;99.90
22035;DHT22;11181;51.002;4.356;2023-03-11T06:46:38;4.40;99.90
22035;DHT22;11181;51.002;4.356;2023-03-11T06:49:06;4.50;99.90
22035;DHT22;11181;51.002;4.356;2023-03-11T06:51:33;4.60;99.90
22035;DHT22;11181;51.002;4.356;2023-03-11T06:54:00;4.60;99.90
22035;DHT22;11181;51.002;4.356;2023-03-11T06:56:27;4.70;99.90
22035;DHT22;11181;51.002;4.356;2023-03-11T06:58:54;4.90;99.90
22035;DHT22;11181;51.002;4.356;2023-03-11T07:01:24;5.00;99.90
22035;DHT22;11181;51.002;4.356;2023-03-11T07:03:51;5.20;99.90
22035;DHT22;11181;51.002;4.356;2023-03-11T07:06:22;5.30;99.90
22035;DHT22;11181;51.002;4.356;2023-03-11T07:08:53;5.40;99.90
22035;DHT22;11181;51.002;4.356;2023-03-11T07:11:22;5.60;99.90
22035;DHT22;11181;51.002;4.356;2023-03-11T07:13:49;5.80;99.90
22035;DHT22;11181;51.002;4.356;2023-03-11T07:16:18;6.10;99.90
22035;DHT22;11181;51.002;4.356;2023-03-11T07:18:48;6.20;99.90
22035;DHT22;11181;51.002;4.356;2023-03-11T07:21:16;6.30;99.90
22035;DHT22;11181;51.002;4.356;2023-03-11T07:23:44;6.30;99.90
22035;DHT22;11181;51.002;4.356;2023-03-11T07:26:12;6.40;99.90
22035;DHT22;11181;51.002;4.356;2023-03-11T07:28:40;6.50;99.90
22035;DHT22;11181;51.002;4.356;2023-03-11T07:31:07;6.60;99.90
22035;DHT22;11181;51.002;4.356;2023-03-11T07:33:34;6.80;99.90
22035;DHT22;11181;51.002;4.356;2023-03-11T07:36:09;6.90;99.90
22035;DHT22;11181;51.002;4.356;2023-03-11T07:38:36;7.10;99.90
22035;DHT22;11181;51.002;4.356;2023-03-11T07:41:04;7.30;99.90
22035;DHT22;11181;51.002;4.356;2023-03-11T07:43:32;7.40;99.90
22035;DHT22;11181;51.002;4.356;2023-03-11T07:46:07;7.50;99.90
22035;DHT22;11181;51.002;4.356;2023-03-11T07:48:35;7.70;99.90
22035;DHT22;11181;51.002;4.356;2023-03-11T07:51:04;7.90;99.90
22035;DHT22;11181;51.002;4.356;2023-03-11T07:53:33;8.00;99.90
22035;DHT22;11181;51.002;4.356;2023-03-11T07:56:01;8.20;99.90
22035;DHT22;11181;51.002;4.356;2023-03-11T07:58:28;8.30;99.90
22035;DHT22;11181;51.002;4.356;2023-03-11T08:00:56;8.60;99.90
22035;DHT22;11181;51.002;4.356;2023-03-11T08:03:23;8.70;99.90
22035;DHT22;11181;51.002;4.356;2023-03-11T08:05:50;8.80;99.90
22035;DHT22;11181;51.002;4.356;2023-03-11T08:08:18;9.00;99.90
22035;DHT22;11181;51.002;4.356;2023-03-11T08:10:46;9.20;99.90
22035;DHT22;11181;51.002;4.356;2023-03-11T08:13:13;9.40;99.90
22035;DHT22;11181;51.002;4.356;2023-03-11T08:15:40;9.50;99.90
22035;DHT22;11181;51.002;4.356;2023-03-11T08:18:07;9.50;99.90
22035;DHT22;11181;51.002;4.356;2023-03-11T08:20:37;9.70;99.90
22035;DHT22;11181;51.002;4.356;2023-03-11T08:23:04;9.90;99.90
22035;DHT22;11181;51.002;4.356;2023-03-11T08:25:31;10.00;99.90
22035;DHT22;11181;51.002;4.356;2023-03-11T08:28:00;10.10;99.90
22035;DHT22;11181;51.002;4.356;2023-03-11T08:30:27;10.20;99.90
22035;DHT22;11181;51.002;4.356;2023-03-11T08:32:54;10.40;99.90
22035;DHT22;11181;51.002;4.356;2023-03-11T08:35:21;10.60;99.90
22035;DHT22;11181;51.002;4.356;2023-03-11T08:37:48;10.70;99.90
22035;DHT22;11181;51.002;4.356;2023-03-11T08:40:16;10.90;99.90
22035;DHT22;11181;51.002;4.356;2023-03-11T08:42:43;11.10;99.90
22035;DHT22;11181;51.002;4.356;2023-03-11T08:45:11;11.20;99.90
22035;DHT22;11181;51.002;4.356;2023-03-11T08:47:39;11.30;99.90
22035;DHT22;11181;51.002;4.356;2023-03-11T08:50:10;11.50;99.90
22035;DHT22;11181;51.002;4.356;2023-03-11T08:52:38;11.50;99.90
22035;DHT22;11181;51.002;4.356;2023-03-11T08:55:06;11.70;99.90
22035;DHT22;11181;51.002;4.356;2023-03-11T08:57:35;11.80;99.90
22035;DHT22;11181;51.002;4.356;2023-03-11T09:00:04;12.00;99.90
22035;DHT22;11181;51.002;4.356;2023-03-11T09:02:33;12.20;99.90
22035;DHT22;11181;51.002;4.356;2023-03-11T09:05:00;12.20;99.90
22035;DHT22;11181;51.002;4.356;2023-03-11T09:07:27;12.40;99.90
22035;DHT22;11181;51.002;4.356;2023-03-11T09:09:54;12.70;99.90
22035;DHT22;11181;51.002;4.356;2023-03-11T09:12:22;13.00;99.90
22035;DHT22;11181;51.002;4.356;2023-03-11T09:14:49;13.10;99.90
22035;DHT22;11181;51.002;4.356;2023-03-11T09:17:16;13.20;99.90
22035;DHT22;11181;51.002;4.356;2023-03-11T09:19:44;13.30;99.90
22035;DHT22;11181;51.002;4.356;2023-03-11T09:22:11;13.40;99.90
22035;DHT22;11181;51.002;4.356;2023-03-11T09:24:38;13.60;99.90
22035;DHT22;11181;51.002;4.356;2023-03-11T09:27:05;13.60;99.90
22035;DHT22;11181;51.002;4.356;2023-03-11T09:29:32;13.80;99.90
22035;DHT22;11181;51.002;4.356;2023-03-11T09:31:59;14.00;99.90
22035;DHT22;11181;51.002;4.356;2023-03-11T09:34:26;14.20;99.90
22035;DHT22;11181;51.002;4.356;2023-03-11T09:36:54;14.40;99.90
22035;DHT22;11181;51.002;4.356;2023-03-11T09:39:21;14.40;99.90
22035;DHT22;11181;51.002;4.356;2023-03-11T09:41:51;14.50;99.90
22035;DHT22;11181;51.002;4.356;2023-03-11T09:44:23;14.60;99.90
22035;DHT22;11181;51.002;4.356;2023-03-11T09:47:29;14.70;99.90
22035;DHT22;11181;51.002;4.356;2023-03-11T09:53:15;14.80;99.00
22035;DHT22;11181;51.002;4.356;2023-03-11T09:55:46;14.60;98.90
22035;DHT22;11181;51.002;4.356;2023-03-11T09:58:22;14.30;99.40
22035;DHT22;11181;51.002;4.356;2023-03-11T10:00:52;14.30;98.20
22035;DHT22;11181;51.002;4.356;2023-03-11T10:03:30;14.40;99.90
22035;DHT22;11181;51.002;4.356;2023-03-11T10:06:05;14.40;99.30
22035;DHT22;11181;51.002;4.356;2023-03-11T10:08:41;14.40;98.40
22035;DHT22;11181;51.002;4.356;2023-03-11T10:11:25;14.30;97.20
22035;DHT22;11181;51.002;4.356;2023-03-11T10:14:01;14.20;96.10
22035;DHT22;11181;51.002;4.356;2023-03-11T10:16:37;14.30;96.00
22035;DHT22;11181;51.002;4.356;2023-03-11T10:19:10;14.60;97.40
22035;DHT22;11181;51.002;4.356;2023-03-11T10:21:46;15.00;97.00
22035;DHT22;11181;51.002;4.356;2023-03-11T10:24:37;15.10;96.50
22035;DHT22;11181;51.002;4.356;2023-03-11T10:27:15;15.10;99.90
22035;DHT22;11181;51.002;4.356;2023-03-11T10:29:50;15.20;99.70
22035;DHT22;11181;51.002;4.356;2023-03-11T10:32:23;15.20;98.10
22035;DHT22;11181;51.002;4.356;2023-03-11T10:34:55;15.30;97.40
22035;DHT22;11181;51.002;4.356;2023-03-11T10:37:26;15.30;95.80
22035;DHT22;11181;51.002;4.356;2023-03-11T10:39:58;15.30;94.30
22035;DHT22;11181;51.002;4.356;2023-03-11T10:42:27;15.00;94.20
22035;DHT22;11181;51.002;4.356;2023-03-11T10:44:55;14.80;95.00
22035;DHT22;11181;51.002;4.356;2023-03-11T10:47:23;14.80;94.90
22035;DHT22;11181;51.002;4.356;2023-03-11T10:49:50;14.70;94.10
22035;DHT22;11181;51.002;4.356;2023-03-11T10:52:18;14.80;95.00
22035;DHT22;11181;51.002;4.356;2023-03-11T10:54:47;14.80;94.90
22035;DHT22;11181;51.002;4.356;2023-03-11T10:57:24;14.80;94.20
22035;DHT22;11181;51.002;4.356;2023-03-11T10:59:53;14.70;93.50
22035;DHT22;11181;51.002;4.356;2023-03-11T11:02:26;14.60;94.10
22035;DHT22;11181;51.002;4.356;2023-03-11T11:05:20;14.60;94.80
22035;DHT22;11181;51.002;4.356;2023-03-11T11:07:51;14.70;96.60
22035;DHT22;11181;51.002;4.356;2023-03-11T11:10:28;14.80;95.00
22035;DHT22;11181;51.002;4.356;2023-03-11T11:12:58;14.90;98.00
22035;DHT22;11181;51.002;4.356;2023-03-11T11:15:27;15.10;96.30
22035;DHT22;11181;51.002;4.356;2023-03-11T11:17:57;15.30;94.50
22035;DHT22;11181;51.002;4.356;2023-03-11T11:20:28;15.20;93.60
22035;DHT22;11181;51.002;4.356;2023-03-11T11:22:57;15.10;92.90
22035;DHT22;11181;51.002;4.356;2023-03-11T11:25:34;14.90;92.30
22035;DHT22;11181;51.002;4.356;2023-03-11T11:28:12;14.70;92.20
22035;DHT22;11181;51.002;4.356;2023-03-11T11:30:51;14.80;93.30
22035;DHT22;11181;51.002;4.356;2023-03-11T11:33:25;14.80;91.80
22035;DHT22;11181;51.002;4.356;2023-03-11T11:35:55;14.70;92.50
22035;DHT22;11181;51.002;4.356;2023-03-11T11:38:24;14.70;92.70
22035;DHT22;11181;51.002;4.356;2023-03-11T11:40:54;14.80;92.30
22035;DHT22;11181;51.002;4.356;2023-03-11T11:43:40;14.90;92.50
22035;DHT22;11181;51.002;4.356;2023-03-11T11:46:15;14.90;91.30
22035;DHT22;11181;51.002;4.356;2023-03-11T11:48:49;15.00;93.80
22035;DHT22;11181;51.002;4.356;2023-03-11T11:51:20;15.10;91.80
22035;DHT22;11181;51.002;4.356;2023-03-11T11:53:53;15.10;91.20
22035;DHT22;11181;51.002;4.356;2023-03-11T11:56:23;15.10;92.00
22035;DHT22;11181;51.002;4.356;2023-03-11T11:58:52;15.30;92.50
22035;DHT22;11181;51.002;4.356;2023-03-11T12:01:28;15.50;92.00
22035;DHT22;11181;51.002;4.356;2023-03-11T12:04:29;15.70;92.00
22035;DHT22;11181;51.002;4.356;2023-03-11T12:07:24;15.90;92.80
22035;DHT22;11181;51.002;4.356;2023-03-11T12:09:59;16.00;89.50
22035;DHT22;11181;51.002;4.356;2023-03-11T12:12:32;16.10;90.60
22035;DHT22;11181;51.002;4.356;2023-03-11T12:15:10;16.20;91.50
22035;DHT22;11181;51.002;4.356;2023-03-11T12:17:42;16.20;88.80
22035;DHT22;11181;51.002;4.356;2023-03-11T12:20:14;16.20;90.50
22035;DHT22;11181;51.002;4.356;2023-03-11T12:26:11;16.50;91.10
22035;DHT22;11181;51.002;4.356;2023-03-11T12:28:43;16.60;90.10
22035;DHT22;11181;51.002;4.356;2023-03-11T12:31:12;16.80;91.70
22035;DHT22;11181;51.002;4.356;2023-03-11T12:33:41;16.70;87.80
22035;DHT22;11181;51.002;4.356;2023-03-11T12:36:20;16.50;88.60
22035;DHT22;11181;51.002;4.356;2023-03-11T12:38:48;16.20;85.90
22035;DHT22;11181;51.002;4.356;2023-03-11T12:41:30;16.30;88.30
22035;DHT22;11181;51.002;4.356;2023-03-11T12:44:23;16.50;88.10
22035;DHT22;11181;51.002;4.356;2023-03-11T12:47:18;16.40;84.30
22035;DHT22;11181;51.002;4.356;2023-03-11T12:49:46;16.30;86.70
22035;DHT22;11181;51.002;4.356;2023-03-11T12:52:25;16.50;87.30
22035;DHT22;11181;51.002;4.356;2023-03-11T12:55:28;16.70;90.10
22035;DHT22;11181;51.002;4.356;2023-03-11T12:58:06;17.00;90.20
22035;DHT22;11181;51.002;4.356;2023-03-11T13:00:55;17.20;85.60
22035;DHT22;11181;51.002;4.356;2023-03-11T13:03:36;16.90;83.80
22035;DHT22;11181;51.002;4.356;2023-03-11T13:06:20;16.50;83.10
22035;DHT22;11181;51.002;4.356;2023-03-11T13:08:49;16.40;83.00
22035;DHT22;11181;51.002;4.356;2023-03-11T13:11:38;16.40;85.90
22035;DHT22;11181;51.002;4.356;2023-03-11T13:14:27;16.60;83.80
22035;DHT22;11181;51.002;4.356;2023-03-11T13:16:56;16.70;87.70
22035;DHT22;11181;51.002;4.356;2023-03-11T13:19:50;16.60;88.00
22035;DHT22;11181;51.002;4.356;2023-03-11T13:25:40;16.40;88.30
22035;DHT22;11181;51.002;4.356;2023-03-11T13:28:29;16.20;90.50
22035;DHT22;11181;51.002;4.356;2023-03-11T13:31:08;16.30;89.70
22035;DHT22;11181;51.002;4.356;2023-03-11T13:33:47;16.50;90.40
22035;DHT22;11181;51.002;4.356;2023-03-11T13:36:48;16.60;88.80
22035;DHT22;11181;51.002;4.356;2023-03-11T13:39:30;16.80;86.40
22035;DHT22;11181;51.002;4.356;2023-03-11T13:41:58;16.90;85.10
22035;DHT22;11181;51.002;4.356;2023-03-11T13:44:28;16.90;81.90
22035;DHT22;11181;51.002;4.356;2023-03-11T13:47:00;16.70;82.40
22035;DHT22;11181;51.002;4.356;2023-03-11T13:49:36;16.70;86.30
22035;DHT22;11181;51.002;4.356;2023-03-11T13:52:08;16.90;84.50
22035;DHT22;11181;51.002;4.356;2023-03-11T13:54:38;16.90;79.20
22035;DHT22;11181;51.002;4.356;2023-03-11T13:57:20;16.90;78.20
22035;DHT22;11181;51.002;4.356;2023-03-11T13:59:51;16.80;80.80
22035;DHT22;11181;51.002;4.356;2023-03-11T14:02:20;16.90;82.20
22035;DHT22;11181;51.002;4.356;2023-03-11T14:04:49;17.00;82.70
22035;DHT22;11181;51.002;4.356;2023-03-11T14:07:24;16.90;81.80
22035;DHT22;11181;51.002;4.356;2023-03-11T14:10:20;16.60;80.80
22035;DHT22;11181;51.002;4.356;2023-03-11T14:12:47;16.50;83.40
22035;DHT22;11181;51.002;4.356;2023-03-11T14:15:18;16.50;87.00
22035;DHT22;11181;51.002;4.356;2023-03-11T14:17:46;16.50;83.40
22035;DHT22;11181;51.002;4.356;2023-03-11T14:20:15;16.70;83.50
22035;DHT22;11181;51.002;4.356;2023-03-11T14:22:46;16.60;81.70
22035;DHT22;11181;51.002;4.356;2023-03-11T14:25:17;16.40;76.70
22035;DHT22;11181;51.002;4.356;2023-03-11T14:27:50;16.10;74.20
22035;DHT22;11181;51.002;4.356;2023-03-11T14:30:25;15.90;76.30
22035;DHT22;11181;51.002;4.356;2023-03-11T14:32:57;15.80;74.90
22035;DHT22;11181;51.002;4.356;2023-03-11T14:35:25;15.80;73.90
22035;DHT22;11181;51.002;4.356;2023-03-11T14:37:53;16.10;76.40
22035;DHT22;11181;51.002;4.356;2023-03-11T14:40:28;16.40;77.50
22035;DHT22;11181;51.002;4.356;2023-03-11T14:42:58;16.50;77.60
22035;DHT22;11181;51.002;4.356;2023-03-11T14:45:28;16.50;78.00
22035;DHT22;11181;51.002;4.356;2023-03-11T14:47:58;16.60;76.10
22035;DHT22;11181;51.002;4.356;2023-03-11T14:50:28;16.60;77.80
22035;DHT22;11181;51.002;4.356;2023-03-11T14:53:00;16.50;72.60
22035;DHT22;11181;51.002;4.356;2023-03-11T14:55:31;16.50;72.70
22035;DHT22;11181;51.002;4.356;2023-03-11T14:58:02;16.60;74.40
22035;DHT22;11181;51.002;4.356;2023-03-11T15:00:35;16.50;74.40
22035;DHT22;11181;51.002;4.356;2023-03-11T15:03:11;16.60;73.40
22035;DHT22;11181;51.002;4.356;2023-03-11T15:05:44;16.70;71.80
22035;DHT22;11181;51.002;4.356;2023-03-11T15:08:16;16.70;74.60
22035;DHT22;11181;51.002;4.356;2023-03-11T15:10:59;16.40;73.80
22035;DHT22;11181;51.002;4.356;2023-03-11T15:13:26;16.00;74.50
22035;DHT22;11181;51.002;4.356;2023-03-11T15:15:56;16.10;75.30
22035;DHT22;11181;51.002;4.356;2023-03-11T15:18:25;16.00;77.80
22035;DHT22;11181;51.002;4.356;2023-03-11T15:21:06;15.90;77.20
22035;DHT22;11181;51.002;4.356;2023-03-11T15:23:35;15.80;76.40
22035;DHT22;11181;51.002;4.356;2023-03-11T15:26:02;15.80;78.70
22035;DHT22;11181;51.002;4.356;2023-03-11T15:28:32;15.70;77.40
22035;DHT22;11181;51.002;4.356;2023-03-11T15:31:23;15.80;78.00
22035;DHT22;11181;51.002;4.356;2023-03-11T15:34:06;15.90;78.90
22035;DHT22;11181;51.002;4.356;2023-03-11T15:36:35;15.90;78.80
22035;DHT22;11181;51.002;4.356;2023-03-11T15:39:17;16.00;79.30
22035;DHT22;11181;51.002;4.356;2023-03-11T15:41:47;16.00;80.00
22035;DHT22;11181;51.002;4.356;2023-03-11T15:44:26;16.00;81.10
22035;DHT22;11181;51.002;4.356;2023-03-11T15:46:53;16.00;79.30
22035;DHT22;11181;51.002;4.356;2023-03-11T15:49:20;16.00;78.00
22035;DHT22;11181;51.002;4.356;2023-03-11T15:51:47;15.90;79.80
22035;DHT22;11181;51.002;4.356;2023-03-11T15:54:16;15.90;79.80
22035;DHT22;11181;51.002;4.356;2023-03-11T15:56:43;15.90;77.10
22035;DHT22;11181;51.002;4.356;2023-03-11T15:59:13;16.10;75.80
22035;DHT22;11181;51.002;4.356;2023-03-11T16:01:42;16.10;73.90
22035;DHT22;11181;51.002;4.356;2023-03-11T16:04:12;16.20;74.40
22035;DHT22;11181;51.002;4.356;2023-03-11T16:06:41;16.10;74.40
22035;DHT22;11181;51.002;4.356;2023-03-11T16:09:08;16.00;74.80
22035;DHT22;11181;51.002;4.356;2023-03-11T16:11:37;15.90;75.50